sensor_id;sensor_type;location;lat;lon;timestamp;P1;durP1;ratioP1;P2;durP2;ratioP2
25990;SDS011;13779;-33.886;151.198;2022-12-24T00:03:04;7.25;;;4.07;;
25990;SDS011;13779;-33.886;151.198;2022-12-24T00:05:36;6.43;;;4.30;;
25990;SDS011;13779;-33.886;151.198;2022-12-24T00:08:06;8.43;;;4.60;;
25990;SDS011;13779;-33.886;151.198;2022-12-24T00:10:36;8.63;;;4.82;;
25990;SDS011;13779;-33.886;151.198;2022-12-24T00:13:06;7.40;;;5.28;;
25990;SDS011;13779;-33.886;151.198;2022-12-24T00:15:36;8.18;;;4.45;;
25990;SDS011;13779;-33.886;151.198;2022-12-24T00:18:06;6.68;;;4.25;;
25990;SDS011;13779;-33.886;151.198;2022-12-24T00:20:36;12.25;;;4.20;;
25990;SDS011;13779;-33.886;151.198;2022-12-24T00:23:07;10.87;;;4.43;;
25990;SDS011;13779;-33.886;151.198;2022-12-24T00:25:37;8.40;;;4.47;;
25990;SDS011;13779;-33.886;151.198;2022-12-24T00:28:09;9.57;;;4.50;;
25990;SDS011;13779;-33.886;151.198;2022-12-24T00:30:41;10.93;;;4.63;;
25990;SDS011;13779;-33.886;151.198;2022-12-24T00:33:12;8.93;;;4.75;;
25990;SDS011;13779;-33.886;151.198;2022-12-24T00:35:50;8.10;;;4.65;;
25990;SDS011;13779;-33.886;151.198;2022-12-24T00:38:21;9.02;;;4.45;;
25990;SDS011;13779;-33.886;151.198;2022-12-24T00:40:56;6.95;;;4.28;;
25990;SDS011;13779;-33.886;151.198;2022-12-24T00:43:29;9.93;;;4.60;;
25990;SDS011;13779;-33.886;151.198;2022-12-24T00:46:00;10.38;;;5.50;;
25990;SDS011;13779;-33.886;151.198;2022-12-24T00:48:30;13.05;;;5.15;;
25990;SDS011;13779;-33.886;151.198;2022-12-24T00:51:01;7.53;;;5.03;;
25990;SDS011;13779;-33.886;151.198;2022-12-24T00:53:31;9.50;;;4.72;;
25990;SDS011;13779;-33.886;151.198;2022-12-24T00:56:02;12.15;;;4.50;;
25990;SDS011;13779;-33.886;151.198;2022-12-24T00:58:33;10.35;;;4.57;;
25990;SDS011;13779;-33.886;151.198;2022-12-24T01:01:04;6.68;;;3.90;;
25990;SDS011;13779;-33.886;151.198;2022-12-24T01:03:35;5.75;;;4.45;;
25990;SDS011;13779;-33.886;151.198;2022-12-24T01:08:38;6.05;;;3.90;;
25990;SDS011;13779;-33.886;151.198;2022-12-24T01:11:09;4.97;;;3.50;;
25990;SDS011;13779;-33.886;151.198;2022-12-24T01:13:40;7.15;;;4.10;;
25990;SDS011;13779;-33.886;151.198;2022-12-24T01:16:15;7.13;;;3.78;;
25990;SDS011;13779;-33.886;151.198;2022-12-24T01:18:48;9.48;;;4.57;;
25990;SDS011;13779;-33.886;151.198;2022-12-24T01:21:18;8.23;;;4.00;;
25990;SDS011;13779;-33.886;151.198;2022-12-24T01:23:49;7.50;;;3.67;;
25990;SDS011;13779;-33.886;151.198;2022-12-24T01:28:49;6.00;;;3.78;;
25990;SDS011;13779;-33.886;151.198;2022-12-24T01:31:19;5.90;;;3.90;;
25990;SDS011;13779;-33.886;151.198;2022-12-24T01:33:49;5.40;;;4.27;;
25990;SDS011;13779;-33.886;151.198;2022-12-24T01:36:20;7.90;;;3.42;;
25990;SDS011;13779;-33.886;151.198;2022-12-24T01:38:50;6.35;;;3.60;;
25990;SDS011;13779;-33.886;151.198;2022-12-24T01:41:20;5.68;;;3.83;;
25990;SDS011;13779;-33.886;151.198;2022-12-24T01:49:51;6.20;;;5.13;;
25990;SDS011;13779;-33.886;151.198;2022-12-24T01:52:27;6.70;;;4.13;;
25990;SDS011;13779;-33.886;151.198;2022-12-24T01:55:07;5.63;;;4.15;;
25990;SDS011;13779;-33.886;151.198;2022-12-24T01:58:01;7.05;;;5.22;;
25990;SDS011;13779;-33.886;151.198;2022-12-24T02:00:33;5.35;;;4.13;;
25990;SDS011;13779;-33.886;151.198;2022-12-24T02:03:03;6.83;;;4.63;;
25990;SDS011;13779;-33.886;151.198;2022-12-24T02:05:55;6.50;;;5.00;;
25990;SDS011;13779;-33.886;151.198;2022-12-24T02:08:26;10.35;;;4.40;;
25990;SDS011;13779;-33.886;151.198;2022-12-24T02:13:48;5.28;;;3.75;;
25990;SDS011;13779;-33.886;151.198;2022-12-24T02:28:22;7.07;;;3.92;;
25990;SDS011;13779;-33.886;151.198;2022-12-24T02:37:02;6.00;;;4.80;;
25990;SDS011;13779;-33.886;151.198;2022-12-24T02:39:45;6.82;;;3.72;;
25990;SDS011;13779;-33.886;151.198;2022-12-24T02:42:21;9.80;;;3.70;;
25990;SDS011;13779;-33.886;151.198;2022-12-24T02:44:56;5.22;;;3.72;;
25990;SDS011;13779;-33.886;151.198;2022-12-24T02:47:30;5.72;;;3.85;;
25990;SDS011;13779;-33.886;151.198;2022-12-24T02:50:01;6.20;;;5.05;;
25990;SDS011;13779;-33.886;151.198;2022-12-24T02:52:36;6.93;;;4.75;;
25990;SDS011;13779;-33.886;151.198;2022-12-24T02:55:13;5.68;;;4.28;;
25990;SDS011;13779;-33.886;151.198;2022-12-24T03:03:55;5.45;;;3.55;;
25990;SDS011;13779;-33.886;151.198;2022-12-24T03:06:49;6.40;;;3.78;;
25990;SDS011;13779;-33.886;151.198;2022-12-24T03:09:38;6.05;;;3.80;;
25990;SDS011;13779;-33.886;151.198;2022-12-24T03:12:37;8.30;;;3.70;;
25990;SDS011;13779;-33.886;151.198;2022-12-24T03:15:13;7.10;;;3.70;;
25990;SDS011;13779;-33.886;151.198;2022-12-24T03:17:46;5.78;;;3.50;;
25990;SDS011;13779;-33.886;151.198;2022-12-24T03:20:20;8.43;;;4.18;;
25990;SDS011;13779;-33.886;151.198;2022-12-24T03:22:54;8.43;;;4.45;;
25990;SDS011;13779;-33.886;151.198;2022-12-24T03:25:25;7.50;;;4.13;;
25990;SDS011;13779;-33.886;151.198;2022-12-24T03:27:55;7.22;;;4.07;;
25990;SDS011;13779;-33.886;151.198;2022-12-24T03:32:56;8.02;;;3.83;;
25990;SDS011;13779;-33.886;151.198;2022-12-24T03:35:27;6.43;;;3.45;;
25990;SDS011;13779;-33.886;151.198;2022-12-24T03:37:57;7.93;;;3.95;;
25990;SDS011;13779;-33.886;151.198;2022-12-24T03:40:27;7.78;;;3.88;;
25990;SDS011;13779;-33.886;151.198;2022-12-24T03:42:57;5.75;;;3.60;;
25990;SDS011;13779;-33.886;151.198;2022-12-24T03:45:27;7.22;;;3.45;;
25990;SDS011;13779;-33.886;151.198;2022-12-24T03:47:58;13.43;;;3.85;;
25990;SDS011;13779;-33.886;151.198;2022-12-24T03:50:28;9.15;;;3.22;;
25990;SDS011;13779;-33.886;151.198;2022-12-24T03:52:58;4.97;;;3.40;;
25990;SDS011;13779;-33.886;151.198;2022-12-24T03:55:28;4.90;;;3.33;;
25990;SDS011;13779;-33.886;151.198;2022-12-24T03:57:58;3.35;;;3.05;;
25990;SDS011;13779;-33.886;151.198;2022-12-24T04:00:28;6.85;;;3.28;;
25990;SDS011;13779;-33.886;151.198;2022-12-24T04:02:58;6.85;;;3.20;;
25990;SDS011;13779;-33.886;151.198;2022-12-24T04:05:29;9.10;;;3.17;;
25990;SDS011;13779;-33.886;151.198;2022-12-24T04:07:59;5.68;;;3.00;;
25990;SDS011;13779;-33.886;151.198;2022-12-24T04:10:30;6.55;;;3.33;;
25990;SDS011;13779;-33.886;151.198;2022-12-24T04:13:00;6.13;;;3.45;;
25990;SDS011;13779;-33.886;151.198;2022-12-24T04:15:30;5.50;;;3.03;;
25990;SDS011;13779;-33.886;151.198;2022-12-24T04:18:00;7.65;;;4.28;;
25990;SDS011;13779;-33.886;151.198;2022-12-24T04:20:30;6.13;;;2.80;;
25990;SDS011;13779;-33.886;151.198;2022-12-24T04:23:00;9.07;;;3.63;;
25990;SDS011;13779;-33.886;151.198;2022-12-24T04:25:30;6.55;;;2.80;;
25990;SDS011;13779;-33.886;151.198;2022-12-24T04:28:00;5.10;;;3.20;;
25990;SDS011;13779;-33.886;151.198;2022-12-24T04:30:33;4.43;;;2.83;;
25990;SDS011;13779;-33.886;151.198;2022-12-24T04:33:03;7.13;;;3.65;;
25990;SDS011;13779;-33.886;151.198;2022-12-24T04:35:37;8.40;;;3.17;;
25990;SDS011;13779;-33.886;151.198;2022-12-24T04:38:10;5.57;;;3.25;;
25990;SDS011;13779;-33.886;151.198;2022-12-24T04:40:41;7.77;;;3.57;;
25990;SDS011;13779;-33.886;151.198;2022-12-24T04:43:11;7.20;;;3.40;;
25990;SDS011;13779;-33.886;151.198;2022-12-24T04:45:41;5.63;;;2.77;;
25990;SDS011;13779;-33.886;151.198;2022-12-24T04:48:11;6.38;;;2.50;;
25990;SDS011;13779;-33.886;151.198;2022-12-24T04:50:41;3.58;;;2.40;;
25990;SDS011;13779;-33.886;151.198;2022-12-24T04:53:11;4.60;;;2.38;;
25990;SDS011;13779;-33.886;151.198;2022-12-24T04:55:45;5.60;;;2.60;;
25990;SDS011;13779;-33.886;151.198;2022-12-24T04:58:15;4.95;;;2.20;;
25990;SDS011;13779;-33.886;151.198;2022-12-24T05:00:45;3.38;;;2.72;;
25990;SDS011;13779;-33.886;151.198;2022-12-24T05:03:15;3.53;;;2.90;;
25990;SDS011;13779;-33.886;151.198;2022-12-24T05:05:45;5.28;;;2.45;;
25990;SDS011;13779;-33.886;151.198;2022-12-24T05:08:15;6.17;;;2.40;;
25990;SDS011;13779;-33.886;151.198;2022-12-24T05:10:53;6.68;;;2.95;;
25990;SDS011;13779;-33.886;151.198;2022-12-24T05:13:24;4.20;;;2.58;;
25990;SDS011;13779;-33.886;151.198;2022-12-24T05:16:03;6.40;;;3.08;;
25990;SDS011;13779;-33.886;151.198;2022-12-24T05:18:33;4.88;;;2.22;;
25990;SDS011;13779;-33.886;151.198;2022-12-24T05:21:07;4.22;;;2.67;;
25990;SDS011;13779;-33.886;151.198;2022-12-24T05:23:39;4.13;;;2.70;;
25990;SDS011;13779;-33.886;151.198;2022-12-24T05:27:00;4.65;;;2.92;;
25990;SDS011;13779;-33.886;151.198;2022-12-24T05:29:25;6.55;;;2.25;;
25990;SDS011;13779;-33.886;151.198;2022-12-24T05:31:55;7.93;;;2.60;;
25990;SDS011;13779;-33.886;151.198;2022-12-24T05:34:25;5.00;;;2.70;;
25990;SDS011;13779;-33.886;151.198;2022-12-24T05:36:57;3.45;;;2.60;;
25990;SDS011;13779;-33.886;151.198;2022-12-24T05:39:27;5.00;;;2.50;;
25990;SDS011;13779;-33.886;151.198;2022-12-24T05:41:57;7.80;;;2.97;;
25990;SDS011;13779;-33.886;151.198;2022-12-24T05:44:27;6.50;;;2.55;;
25990;SDS011;13779;-33.886;151.198;2022-12-24T05:46:57;6.65;;;2.80;;
25990;SDS011;13779;-33.886;151.198;2022-12-24T05:49:27;4.38;;;2.60;;
25990;SDS011;13779;-33.886;151.198;2022-12-24T05:51:58;6.85;;;2.53;;
25990;SDS011;13779;-33.886;151.198;2022-12-24T05:54:28;6.40;;;2.33;;
25990;SDS011;13779;-33.886;151.198;2022-12-24T05:56:58;5.93;;;2.63;;
25990;SDS011;13779;-33.886;151.198;2022-12-24T05:59:28;6.03;;;2.90;;
25990;SDS011;13779;-33.886;151.198;2022-12-24T06:01:58;7.13;;;2.25;;
25990;SDS011;13779;-33.886;151.198;2022-12-24T06:04:28;5.82;;;2.92;;
25990;SDS011;13779;-33.886;151.198;2022-12-24T06:06:59;4.63;;;3.40;;
25990;SDS011;13779;-33.886;151.198;2022-12-24T06:09:29;4.72;;;2.17;;
25990;SDS011;13779;-33.886;151.198;2022-12-24T06:11:59;5.77;;;2.37;;
25990;SDS011;13779;-33.886;151.198;2022-12-24T06:14:29;4.60;;;2.47;;
25990;SDS011;13779;-33.886;151.198;2022-12-24T06:16:59;3.53;;;1.80;;
25990;SDS011;13779;-33.886;151.198;2022-12-24T06:19:29;5.32;;;2.55;;
25990;SDS011;13779;-33.886;151.198;2022-12-24T06:21:59;8.57;;;3.20;;
25990;SDS011;13779;-33.886;151.198;2022-12-24T06:24:29;6.73;;;2.20;;
25990;SDS011;13779;-33.886;151.198;2022-12-24T06:27:01;6.47;;;2.35;;
25990;SDS011;13779;-33.886;151.198;2022-12-24T06:29:31;6.50;;;2.20;;
25990;SDS011;13779;-33.886;151.198;2022-12-24T06:32:01;9.35;;;3.63;;
25990;SDS011;13779;-33.886;151.198;2022-12-24T06:34:31;3.17;;;2.33;;
25990;SDS011;13779;-33.886;151.198;2022-12-24T06:37:02;6.78;;;2.00;;
25990;SDS011;13779;-33.886;151.198;2022-12-24T06:39:32;5.63;;;2.37;;
25990;SDS011;13779;-33.886;151.198;2022-12-24T06:42:02;7.45;;;2.30;;
25990;SDS011;13779;-33.886;151.198;2022-12-24T06:44:32;4.78;;;2.40;;
25990;SDS011;13779;-33.886;151.198;2022-12-24T06:47:02;7.00;;;2.05;;
25990;SDS011;13779;-33.886;151.198;2022-12-24T06:49:32;5.20;;;1.90;;
25990;SDS011;13779;-33.886;151.198;2022-12-24T06:52:02;4.22;;;1.85;;
25990;SDS011;13779;-33.886;151.198;2022-12-24T06:54:33;6.13;;;2.42;;
25990;SDS011;13779;-33.886;151.198;2022-12-24T06:57:03;4.28;;;2.30;;
25990;SDS011;13779;-33.886;151.198;2022-12-24T06:59:35;6.22;;;2.10;;
25990;SDS011;13779;-33.886;151.198;2022-12-24T07:02:08;5.88;;;2.50;;
25990;SDS011;13779;-33.886;151.198;2022-12-24T07:04:38;4.20;;;2.28;;
25990;SDS011;13779;-33.886;151.198;2022-12-24T07:07:09;4.68;;;2.50;;
25990;SDS011;13779;-33.886;151.198;2022-12-24T07:09:39;5.77;;;2.70;;
25990;SDS011;13779;-33.886;151.198;2022-12-24T07:12:09;5.57;;;2.57;;
25990;SDS011;13779;-33.886;151.198;2022-12-24T07:14:39;4.40;;;2.45;;
25990;SDS011;13779;-33.886;151.198;2022-12-24T07:17:10;5.35;;;2.83;;
25990;SDS011;13779;-33.886;151.198;2022-12-24T07:19:40;5.13;;;2.97;;
25990;SDS011;13779;-33.886;151.198;2022-12-24T07:22:10;6.40;;;3.10;;
25990;SDS011;13779;-33.886;151.198;2022-12-24T07:24:41;7.35;;;3.22;;
25990;SDS011;13779;-33.886;151.198;2022-12-24T07:27:11;6.03;;;3.70;;
25990;SDS011;13779;-33.886;151.198;2022-12-24T07:29:42;8.40;;;3.35;;
25990;SDS011;13779;-33.886;151.198;2022-12-24T07:32:12;7.28;;;3.83;;
25990;SDS011;13779;-33.886;151.198;2022-12-24T07:34:42;7.05;;;3.72;;
25990;SDS011;13779;-33.886;151.198;2022-12-24T07:37:12;10.43;;;4.53;;
25990;SDS011;13779;-33.886;151.198;2022-12-24T07:39:42;10.60;;;4.57;;
25990;SDS011;13779;-33.886;151.198;2022-12-24T07:42:13;8.13;;;4.13;;
25990;SDS011;13779;-33.886;151.198;2022-12-24T07:44:43;14.73;;;6.25;;
25990;SDS011;13779;-33.886;151.198;2022-12-24T07:47:13;6.93;;;4.30;;
25990;SDS011;13779;-33.886;151.198;2022-12-24T07:49:43;9.20;;;4.32;;
25990;SDS011;13779;-33.886;151.198;2022-12-24T07:52:13;13.80;;;5.13;;
25990;SDS011;13779;-33.886;151.198;2022-12-24T07:54:43;9.83;;;4.50;;
25990;SDS011;13779;-33.886;151.198;2022-12-24T07:57:16;8.73;;;4.88;;
25990;SDS011;13779;-33.886;151.198;2022-12-24T07:59:46;7.57;;;4.60;;
25990;SDS011;13779;-33.886;151.198;2022-12-24T08:02:16;7.22;;;3.95;;
25990;SDS011;13779;-33.886;151.198;2022-12-24T08:04:46;13.63;;;5.07;;
25990;SDS011;13779;-33.886;151.198;2022-12-24T08:07:16;11.90;;;4.40;;
25990;SDS011;13779;-33.886;151.198;2022-12-24T08:09:47;9.75;;;4.43;;
25990;SDS011;13779;-33.886;151.198;2022-12-24T08:12:17;9.52;;;3.65;;
25990;SDS011;13779;-33.886;151.198;2022-12-24T08:14:47;7.82;;;3.53;;
25990;SDS011;13779;-33.886;151.198;2022-12-24T08:17:21;7.00;;;3.55;;
25990;SDS011;13779;-33.886;151.198;2022-12-24T08:19:57;9.32;;;3.92;;
25990;SDS011;13779;-33.886;151.198;2022-12-24T08:22:27;9.30;;;4.28;;
25990;SDS011;13779;-33.886;151.198;2022-12-24T08:24:57;8.37;;;3.70;;
25990;SDS011;13779;-33.886;151.198;2022-12-24T08:27:28;8.80;;;3.88;;
25990;SDS011;13779;-33.886;151.198;2022-12-24T08:29:58;7.78;;;3.80;;
25990;SDS011;13779;-33.886;151.198;2022-12-24T08:32:28;6.78;;;4.10;;
25990;SDS011;13779;-33.886;151.198;2022-12-24T08:34:58;9.57;;;4.65;;
25990;SDS011;13779;-33.886;151.198;2022-12-24T08:37:28;10.60;;;4.32;;
25990;SDS011;13779;-33.886;151.198;2022-12-24T08:39:58;5.75;;;3.70;;
25990;SDS011;13779;-33.886;151.198;2022-12-24T08:42:29;4.67;;;3.47;;
25990;SDS011;13779;-33.886;151.198;2022-12-24T08:44:59;9.52;;;4.60;;
25990;SDS011;13779;-33.886;151.198;2022-12-24T08:47:29;7.65;;;3.90;;
25990;SDS011;13779;-33.886;151.198;2022-12-24T08:49:59;10.40;;;4.05;;
25990;SDS011;13779;-33.886;151.198;2022-12-24T08:52:30;9.10;;;4.00;;
25990;SDS011;13779;-33.886;151.198;2022-12-24T08:55:00;11.60;;;4.30;;
25990;SDS011;13779;-33.886;151.198;2022-12-24T08:57:33;9.65;;;4.00;;
25990;SDS011;13779;-33.886;151.198;2022-12-24T09:00:05;9.25;;;4.05;;
25990;SDS011;13779;-33.886;151.198;2022-12-24T09:02:36;7.88;;;3.92;;
25990;SDS011;13779;-33.886;151.198;2022-12-24T09:05:06;10.27;;;4.55;;
25990;SDS011;13779;-33.886;151.198;2022-12-24T09:07:37;8.75;;;3.70;;
25990;SDS011;13779;-33.886;151.198;2022-12-24T09:10:07;8.07;;;3.67;;
25990;SDS011;13779;-33.886;151.198;2022-12-24T09:12:41;8.85;;;3.40;;
25990;SDS011;13779;-33.886;151.198;2022-12-24T09:15:11;8.75;;;4.07;;
25990;SDS011;13779;-33.886;151.198;2022-12-24T09:17:41;9.50;;;3.87;;
25990;SDS011;13779;-33.886;151.198;2022-12-24T09:20:11;9.32;;;4.28;;
25990;SDS011;13779;-33.886;151.198;2022-12-24T09:22:41;7.82;;;4.65;;
25990;SDS011;13779;-33.886;151.198;2022-12-24T09:25:12;14.95;;;3.90;;
25990;SDS011;13779;-33.886;151.198;2022-12-24T09:27:42;14.50;;;3.90;;
25990;SDS011;13779;-33.886;151.198;2022-12-24T09:30:12;10.48;;;3.53;;
25990;SDS011;13779;-33.886;151.198;2022-12-24T09:32:43;11.63;;;4.25;;
25990;SDS011;13779;-33.886;151.198;2022-12-24T09:35:13;7.07;;;3.70;;
25990;SDS011;13779;-33.886;151.198;2022-12-24T09:37:43;12.65;;;3.70;;
25990;SDS011;13779;-33.886;151.198;2022-12-24T09:40:21;5.37;;;3.57;;
25990;SDS011;13779;-33.886;151.198;2022-12-24T09:42:56;9.55;;;4.05;;
25990;SDS011;13779;-33.886;151.198;2022-12-24T09:45:28;8.53;;;3.57;;
25990;SDS011;13779;-33.886;151.198;2022-12-24T09:48:08;6.53;;;3.70;;
25990;SDS011;13779;-33.886;151.198;2022-12-24T09:56:20;7.82;;;4.00;;
25990;SDS011;13779;-33.886;151.198;2022-12-24T09:59:14;7.47;;;3.88;;
25990;SDS011;13779;-33.886;151.198;2022-12-24T10:01:53;6.10;;;3.58;;
25990;SDS011;13779;-33.886;151.198;2022-12-24T10:04:26;8.25;;;3.70;;
25990;SDS011;13779;-33.886;151.198;2022-12-24T10:12:49;9.75;;;4.50;;
25990;SDS011;13779;-33.886;151.198;2022-12-24T10:15:59;5.00;;;3.50;;
25990;SDS011;13779;-33.886;151.198;2022-12-24T10:18:51;7.80;;;3.63;;
25990;SDS011;13779;-33.886;151.198;2022-12-24T10:24:42;8.05;;;3.83;;
25990;SDS011;13779;-33.886;151.198;2022-12-24T10:27:27;4.78;;;3.10;;
25990;SDS011;13779;-33.886;151.198;2022-12-24T10:30:06;10.20;;;3.83;;
25990;SDS011;13779;-33.886;151.198;2022-12-24T10:32:44;7.33;;;3.50;;
25990;SDS011;13779;-33.886;151.198;2022-12-24T10:35:28;6.72;;;3.80;;
25990;SDS011;13779;-33.886;151.198;2022-12-24T10:38:03;8.25;;;4.10;;
25990;SDS011;13779;-33.886;151.198;2022-12-24T10:40:40;7.35;;;3.53;;
25990;SDS011;13779;-33.886;151.198;2022-12-24T10:43:22;9.27;;;4.57;;
25990;SDS011;13779;-33.886;151.198;2022-12-24T10:45:58;7.28;;;4.72;;
25990;SDS011;13779;-33.886;151.198;2022-12-24T10:48:34;10.45;;;4.43;;
25990;SDS011;13779;-33.886;151.198;2022-12-24T10:54:09;7.22;;;4.13;;
25990;SDS011;13779;-33.886;151.198;2022-12-24T10:56:56;10.10;;;4.72;;
25990;SDS011;13779;-33.886;151.198;2022-12-24T10:59:29;9.68;;;4.85;;
25990;SDS011;13779;-33.886;151.198;2022-12-24T11:04:58;6.97;;;4.18;;
25990;SDS011;13779;-33.886;151.198;2022-12-24T11:07:30;7.03;;;4.00;;
25990;SDS011;13779;-33.886;151.198;2022-12-24T11:10:06;7.35;;;3.88;;
25990;SDS011;13779;-33.886;151.198;2022-12-24T11:12:50;7.78;;;4.07;;
25990;SDS011;13779;-33.886;151.198;2022-12-24T11:15:40;10.38;;;4.13;;
25990;SDS011;13779;-33.886;151.198;2022-12-24T11:18:13;7.90;;;4.28;;
25990;SDS011;13779;-33.886;151.198;2022-12-24T11:20:47;8.65;;;4.50;;
25990;SDS011;13779;-33.886;151.198;2022-12-24T11:23:20;12.50;;;4.38;;
25990;SDS011;13779;-33.886;151.198;2022-12-24T11:25:51;11.10;;;4.70;;
25990;SDS011;13779;-33.886;151.198;2022-12-24T11:28:27;11.55;;;5.22;;
25990;SDS011;13779;-33.886;151.198;2022-12-24T11:33:46;9.05;;;4.70;;
25990;SDS011;13779;-33.886;151.198;2022-12-24T11:36:19;6.85;;;4.60;;
25990;SDS011;13779;-33.886;151.198;2022-12-24T11:38:52;13.27;;;4.68;;
25990;SDS011;13779;-33.886;151.198;2022-12-24T11:41:25;12.07;;;4.72;;
25990;SDS011;13779;-33.886;151.198;2022-12-24T11:44:04;8.43;;;4.03;;
25990;SDS011;13779;-33.886;151.198;2022-12-24T11:49:21;13.98;;;4.78;;
25990;SDS011;13779;-33.886;151.198;2022-12-24T11:57:25;16.58;;;4.78;;
25990;SDS011;13779;-33.886;151.198;2022-12-24T12:00:07;13.68;;;5.20;;
25990;SDS011;13779;-33.886;151.198;2022-12-24T12:02:40;11.52;;;4.85;;
25990;SDS011;13779;-33.886;151.198;2022-12-24T12:05:18;12.70;;;5.25;;
25990;SDS011;13779;-33.886;151.198;2022-12-24T12:07:54;11.85;;;5.20;;
25990;SDS011;13779;-33.886;151.198;2022-12-24T12:10:45;15.30;;;5.90;;
25990;SDS011;13779;-33.886;151.198;2022-12-24T12:13:25;9.32;;;6.78;;
25990;SDS011;13779;-33.886;151.198;2022-12-24T12:18:59;10.10;;;6.72;;
25990;SDS011;13779;-33.886;151.198;2022-12-24T12:21:42;14.70;;;7.93;;
25990;SDS011;13779;-33.886;151.198;2022-12-24T12:24:24;8.90;;;6.60;;
25990;SDS011;13779;-33.886;151.198;2022-12-24T12:29:56;8.02;;;6.80;;
25990;SDS011;13779;-33.886;151.198;2022-12-24T12:37:44;13.80;;;8.15;;
25990;SDS011;13779;-33.886;151.198;2022-12-24T12:40:20;14.95;;;10.07;;
25990;SDS011;13779;-33.886;151.198;2022-12-24T12:43:13;16.67;;;9.55;;
25990;SDS011;13779;-33.886;151.198;2022-12-24T12:52:01;18.13;;;10.70;;
25990;SDS011;13779;-33.886;151.198;2022-12-24T12:57:21;29.00;;;12.32;;
25990;SDS011;13779;-33.886;151.198;2022-12-24T13:00:00;19.80;;;11.35;;
25990;SDS011;13779;-33.886;151.198;2022-12-24T13:05:39;25.77;;;11.70;;
25990;SDS011;13779;-33.886;151.198;2022-12-24T13:11:11;26.92;;;12.90;;
25990;SDS011;13779;-33.886;151.198;2022-12-24T13:22:52;26.17;;;13.02;;
25990;SDS011;13779;-33.886;151.198;2022-12-24T13:25:37;22.73;;;12.55;;
25990;SDS011;13779;-33.886;151.198;2022-12-24T13:30:52;23.92;;;11.98;;
25990;SDS011;13779;-33.886;151.198;2022-12-24T13:36:11;26.50;;;12.63;;
25990;SDS011;13779;-33.886;151.198;2022-12-24T13:38:54;31.42;;;13.63;;
25990;SDS011;13779;-33.886;151.198;2022-12-24T13:49:40;31.92;;;12.75;;
25990;SDS011;13779;-33.886;151.198;2022-12-24T14:03:13;32.50;;;11.02;;
25990;SDS011;13779;-33.886;151.198;2022-12-24T14:06:00;31.50;;;10.77;;
25990;SDS011;13779;-33.886;151.198;2022-12-24T14:08:43;28.65;;;10.23;;
25990;SDS011;13779;-33.886;151.198;2022-12-24T14:11:17;24.08;;;10.10;;
25990;SDS011;13779;-33.886;151.198;2022-12-24T14:13:50;27.27;;;9.45;;
25990;SDS011;13779;-33.886;151.198;2022-12-24T14:16:29;26.20;;;8.90;;
25990;SDS011;13779;-33.886;151.198;2022-12-24T14:19:20;27.20;;;8.88;;
25990;SDS011;13779;-33.886;151.198;2022-12-24T14:22:02;22.33;;;8.25;;
25990;SDS011;13779;-33.886;151.198;2022-12-24T14:24:45;26.27;;;8.43;;
25990;SDS011;13779;-33.886;151.198;2022-12-24T14:32:52;23.67;;;8.63;;
25990;SDS011;13779;-33.886;151.198;2022-12-24T14:35:23;22.40;;;7.15;;
25990;SDS011;13779;-33.886;151.198;2022-12-24T14:38:14;23.95;;;9.23;;
25990;SDS011;13779;-33.886;151.198;2022-12-24T14:43:47;17.20;;;7.50;;
25990;SDS011;13779;-33.886;151.198;2022-12-24T14:52:11;31.58;;;7.47;;
25990;SDS011;13779;-33.886;151.198;2022-12-24T14:55:27;22.45;;;7.80;;
25990;SDS011;13779;-33.886;151.198;2022-12-24T15:00:55;28.23;;;7.53;;
25990;SDS011;13779;-33.886;151.198;2022-12-24T15:03:28;30.60;;;9.07;;
25990;SDS011;13779;-33.886;151.198;2022-12-24T15:06:04;23.85;;;7.15;;
25990;SDS011;13779;-33.886;151.198;2022-12-24T15:08:40;28.65;;;8.75;;
25990;SDS011;13779;-33.886;151.198;2022-12-24T15:11:18;30.95;;;7.10;;
25990;SDS011;13779;-33.886;151.198;2022-12-24T15:13:56;29.27;;;8.75;;
25990;SDS011;13779;-33.886;151.198;2022-12-24T15:16:31;21.58;;;7.45;;
25990;SDS011;13779;-33.886;151.198;2022-12-24T15:19:12;25.90;;;6.97;;
25990;SDS011;13779;-33.886;151.198;2022-12-24T15:21:50;27.38;;;6.82;;
25990;SDS011;13779;-33.886;151.198;2022-12-24T15:24:27;35.67;;;7.40;;
25990;SDS011;13779;-33.886;151.198;2022-12-24T15:29:47;25.10;;;5.97;;
25990;SDS011;13779;-33.886;151.198;2022-12-24T15:32:26;23.27;;;6.25;;
25990;SDS011;13779;-33.886;151.198;2022-12-24T15:34:57;28.50;;;6.87;;
25990;SDS011;13779;-33.886;151.198;2022-12-24T15:37:29;17.90;;;6.63;;
25990;SDS011;13779;-33.886;151.198;2022-12-24T15:40:16;24.73;;;6.93;;
25990;SDS011;13779;-33.886;151.198;2022-12-24T15:42:49;23.08;;;6.88;;
25990;SDS011;13779;-33.886;151.198;2022-12-24T15:47:56;27.23;;;7.25;;
25990;SDS011;13779;-33.886;151.198;2022-12-24T15:50:45;23.33;;;6.90;;
25990;SDS011;13779;-33.886;151.198;2022-12-24T15:53:41;22.00;;;6.95;;
25990;SDS011;13779;-33.886;151.198;2022-12-24T15:56:12;24.10;;;6.90;;
25990;SDS011;13779;-33.886;151.198;2022-12-24T16:04:53;22.73;;;7.70;;
25990;SDS011;13779;-33.886;151.198;2022-12-24T16:07:58;23.60;;;6.32;;
25990;SDS011;13779;-33.886;151.198;2022-12-24T16:11:05;23.30;;;6.78;;
25990;SDS011;13779;-33.886;151.198;2022-12-24T16:19:04;21.88;;;6.60;;
25990;SDS011;13779;-33.886;151.198;2022-12-24T16:21:43;20.40;;;7.18;;
25990;SDS011;13779;-33.886;151.198;2022-12-24T16:24:20;22.60;;;6.88;;
25990;SDS011;13779;-33.886;151.198;2022-12-24T16:27:04;23.42;;;6.88;;
25990;SDS011;13779;-33.886;151.198;2022-12-24T16:29:40;25.13;;;6.65;;
25990;SDS011;13779;-33.886;151.198;2022-12-24T16:32:35;22.85;;;6.45;;
25990;SDS011;13779;-33.886;151.198;2022-12-24T16:35:06;19.35;;;6.93;;
25990;SDS011;13779;-33.886;151.198;2022-12-24T16:38:06;24.10;;;7.05;;
25990;SDS011;13779;-33.886;151.198;2022-12-24T16:40:37;17.73;;;6.80;;
25990;SDS011;13779;-33.886;151.198;2022-12-24T16:43:09;22.38;;;6.40;;
25990;SDS011;13779;-33.886;151.198;2022-12-24T16:46:01;23.63;;;6.68;;
25990;SDS011;13779;-33.886;151.198;2022-12-24T16:48:35;31.83;;;7.18;;
25990;SDS011;13779;-33.886;151.198;2022-12-24T16:51:06;29.70;;;6.93;;
25990;SDS011;13779;-33.886;151.198;2022-12-24T16:53:36;26.43;;;6.50;;
25990;SDS011;13779;-33.886;151.198;2022-12-24T16:56:07;29.52;;;6.90;;
25990;SDS011;13779;-33.886;151.198;2022-12-24T16:58:37;26.33;;;6.70;;
25990;SDS011;13779;-33.886;151.198;2022-12-24T17:01:08;26.43;;;7.20;;
25990;SDS011;13779;-33.886;151.198;2022-12-24T17:03:39;24.58;;;6.60;;
25990;SDS011;13779;-33.886;151.198;2022-12-24T17:06:09;26.42;;;6.65;;
25990;SDS011;13779;-33.886;151.198;2022-12-24T17:08:40;18.40;;;6.50;;
25990;SDS011;13779;-33.886;151.198;2022-12-24T17:11:10;20.43;;;6.27;;
25990;SDS011;13779;-33.886;151.198;2022-12-24T17:13:41;26.23;;;6.63;;
25990;SDS011;13779;-33.886;151.198;2022-12-24T17:16:11;26.43;;;7.10;;
25990;SDS011;13779;-33.886;151.198;2022-12-24T17:18:42;22.13;;;6.30;;
25990;SDS011;13779;-33.886;151.198;2022-12-24T17:21:12;22.73;;;7.07;;
25990;SDS011;13779;-33.886;151.198;2022-12-24T17:23:43;24.02;;;6.55;;
25990;SDS011;13779;-33.886;151.198;2022-12-24T17:26:14;26.98;;;6.70;;
25990;SDS011;13779;-33.886;151.198;2022-12-24T17:28:44;29.70;;;7.50;;
25990;SDS011;13779;-33.886;151.198;2022-12-24T17:31:15;28.95;;;7.47;;